Time;durP1;ratioP1;P1;durP2;ratioP2;P2;SDS_P1;SDS_P2;PMS_P1;PMS_P2;Temp;Humidity;BMP_temperature;BMP_pressure;BME280_temperature;BME280_humidity;BME280_pressure;Samples;Min_cycle;Max_cycle;Signal;HPM_P1;HPM_P2
2021/05/21 00:00:10;;;;;;;18.75;4.68;;;;;;;11.86;96.32;98830.75;5051498;28;20417;-84
2021/05/21 00:02:35;;;;;;;20.20;3.53;;;;;;;11.78;96.88;98838.59;5053011;28;20029;-84
2021/05/21 00:05:00;;;;;;;26.00;4.72;;;;;;;11.76;97.21;98837.91;5052823;28;20129;-84
2021/05/21 00:07:26;;;;;;;19.42;4.32;;;;;;;11.55;98.16;98863.66;5052845;28;20025;-84
2021/05/21 00:09:51;;;;;;;16.75;5.03;;;;;;;11.52;99.50;98838.50;5052218;28;20025;-84
2021/05/21 00:12:16;;;;;;;18.70;3.47;;;;;;;11.57;99.10;98824.91;5052802;28;20359;-84
2021/05/21 00:14:42;;;;;;;24.33;4.40;;;;;;;11.48;98.97;98863.44;5052788;28;20033;-84
2021/05/21 00:17:07;;;;;;;22.05;3.20;;;;;;;11.55;98.36;98842.63;5052615;28;20530;-83
2021/05/21 00:19:32;;;;;;;19.15;4.68;;;;;;;11.64;98.56;98826.78;5051944;28;20025;-84
2021/05/21 00:21:58;;;;;;;15.95;3.60;;;;;;;11.66;98.63;98837.16;5052895;28;20029;-83
2021/05/21 00:24:23;;;;;;;20.17;2.92;;;;;;;11.54;99.27;98841.81;5051204;28;20055;-84
2021/05/21 00:26:50;;;;;;;20.90;4.53;;;;;;;11.61;98.83;98836.75;5052686;28;20426;-84
2021/05/21 00:29:17;;;;;;;13.98;2.85;;;;;;;11.54;100.00;98827.84;5052321;28;20067;-84
2021/05/21 00:31:42;;;;;;;19.40;4.28;;;;;;;11.46;100.00;98854.88;5052428;28;20029;-84
2021/05/21 00:34:07;;;;;;;25.05;5.13;;;;;;;11.60;100.00;98827.25;5053033;28;20021;-84
2021/05/21 00:36:33;;;;;;;22.17;3.95;;;;;;;11.61;100.00;98821.00;5052655;28;20390;-84
2021/05/21 00:38:58;;;;;;;17.23;2.90;;;;;;;11.79;99.57;98818.38;5052132;28;20021;-84
2021/05/21 00:41:25;;;;;;;19.27;3.95;;;;;;;11.80;98.37;98802.44;5052170;28;20033;-84
2021/05/21 00:43:56;;;;;;;14.10;3.17;;;;;;;11.75;98.05;98807.34;5052080;28;20040;-84
2021/05/21 00:46:21;;;;;;;25.75;5.22;;;;;;;11.61;99.27;98818.38;5052767;28;20053;-84
2021/05/21 00:48:46;;;;;;;18.27;3.38;;;;;;;11.43;99.92;98787.66;5051970;28;20033;-84
2021/05/21 00:51:12;;;;;;;18.92;3.38;;;;;;;11.69;99.72;98800.06;5052028;28;20020;-84
2021/05/21 00:53:39;;;;;;;15.48;3.80;;;;;;;11.88;98.05;98802.50;5050870;28;20116;-84
2021/05/21 00:56:05;;;;;;;18.88;3.53;;;;;;;11.70;98.67;98788.56;5052307;28;20130;-84
2021/05/21 00:58:31;;;;;;;24.27;4.50;;;;;;;11.34;99.48;98790.34;5051777;28;20517;-84
2021/05/21 01:00:57;;;;;;;26.92;4.45;;;;;;;11.63;98.18;98782.22;5052135;28;20028;-84
2021/05/21 01:03:23;;;;;;;18.48;3.38;;;;;;;11.58;98.53;98781.88;5052130;28;20028;-84
2021/05/21 01:05:48;;;;;;;21.23;3.90;;;;;;;11.79;96.99;98777.13;5052088;28;20032;-84
2021/05/21 01:08:15;;;;;;;14.88;3.53;;;;;;;11.92;94.92;98783.84;5051609;28;20036;-84
2021/05/21 01:10:41;;;;;;;19.00;3.45;;;;;;;11.69;97.49;98781.66;5052290;28;20029;-84
2021/05/21 01:13:06;;;;;;;14.43;3.38;;;;;;;11.64;97.02;98774.19;5052226;28;20540;-84
2021/05/21 01:15:39;;;;;;;19.75;3.03;;;;;;;11.64;97.66;98770.75;5051880;28;20071;-84
2021/05/21 01:18:06;;;;;;;10.02;2.72;;;;;;;11.59;97.48;98765.13;5051593;28;20044;-83
2021/05/21 01:20:32;;;;;;;13.25;2.78;;;;;;;11.72;97.06;98770.81;5050889;28;20040;-84
2021/05/21 01:22:57;;;;;;;18.85;3.10;;;;;;;11.83;97.12;98759.25;5051861;28;20053;-84
2021/05/21 01:25:23;;;;;;;19.45;2.80;;;;;;;11.69;96.17;98766.69;5051896;28;20418;-84
2021/05/21 01:27:50;;;;;;;17.80;3.42;;;;;;;11.72;95.81;98768.19;5051605;28;20033;-84
2021/05/21 01:30:16;;;;;;;15.85;2.70;;;;;;;11.82;95.30;98752.34;5051400;28;20352;-84
2021/05/21 01:32:45;;;;;;;21.70;4.13;;;;;;;12.00;94.73;98752.31;5049539;28;20194;-84
2021/05/21 01:35:11;;;;;;;21.80;3.67;;;;;;;11.56;96.62;98749.66;5050109;28;20021;-84
2021/05/21 01:37:41;;;;;;;13.68;3.28;;;;;;;12.05;93.79;98763.22;5051671;28;20079;-84
2021/05/21 01:40:07;;;;;;;16.75;3.55;;;;;;;11.79;95.35;98750.84;5051535;28;20021;-84
2021/05/21 01:42:33;;;;;;;17.35;3.28;;;;;;;11.74;95.42;98753.09;5050728;28;20049;-84
2021/05/21 01:44:58;;;;;;;19.48;3.13;;;;;;;11.58;97.24;98745.06;5050407;28;20482;-84
2021/05/21 01:47:24;;;;;;;16.77;3.63;;;;;;;11.51;98.17;98729.91;5051835;28;20021;-84
2021/05/21 01:49:49;;;;;;;19.15;3.15;;;;;;;11.65;96.52;98744.31;5051370;28;20028;-84
2021/05/21 01:52:14;;;;;;;13.05;2.95;;;;;;;11.66;95.79;98730.19;5066600;28;20033;-84
2021/05/21 01:54:40;;;;;;;17.30;3.70;;;;;;;11.87;95.26;98721.16;5051628;28;20021;-84
2021/05/21 01:57:05;;;;;;;13.90;2.65;;;;;;;11.78;95.33;98716.81;5051473;28;20118;-84
2021/05/21 01:59:31;;;;;;;19.13;2.97;;;;;;;11.81;95.70;98714.69;5051434;28;20025;-84
2021/05/21 02:01:57;;;;;;;13.85;2.67;;;;;;;11.75;96.25;98722.34;5051040;28;20029;-84
2021/05/21 02:04:31;;;;;;;12.30;2.85;;;;;;;11.57;100.00;98714.50;5051850;28;20039;-84
2021/05/21 02:06:56;;;;;;;12.65;4.43;;;;;;;11.66;100.00;98703.91;5051464;28;20033;-84
2021/05/21 02:09:22;;;;;;;16.98;3.00;;;;;;;11.50;100.00;98704.59;5050222;28;20534;-84
2021/05/21 02:11:47;;;;;;;19.13;3.20;;;;;;;11.49;100.00;98692.44;5054876;28;20025;-84
2021/05/21 02:14:13;;;;;;;16.23;4.75;;;;;;;11.28;100.00;98711.16;5055212;28;20025;-85
2021/05/21 02:16:38;;;;;;;15.48;3.50;;;;;;;11.36;100.00;98696.44;5054671;28;20514;-84
2021/05/21 02:19:03;;;;;;;12.60;2.72;;;;;;;11.51;100.00;98710.66;5054864;28;20033;-85
2021/05/21 02:21:32;;;;;;;8.43;3.08;;;;;;;11.46;100.00;98697.19;5054370;28;20393;-84
2021/05/21 02:24:02;;;;;;;12.93;2.72;;;;;;;11.50;100.00;98688.81;5054693;28;20459;-85
2021/05/21 02:26:27;;;;;;;8.23;2.33;;;;;;;11.34;100.00;98686.06;5054679;28;20025;-84
2021/05/21 02:28:53;;;;;;;14.85;2.70;;;;;;;11.52;100.00;98707.06;5053519;28;20455;-84
2021/05/21 02:31:19;;;;;;;13.15;2.08;;;;;;;11.30;100.00;98695.25;5053015;28;20021;-84
2021/05/21 02:33:45;;;;;;;11.43;2.58;;;;;;;11.22;100.00;98706.50;5054631;28;20052;-84
2021/05/21 02:36:10;;;;;;;13.07;2.55;;;;;;;11.23;100.00;98692.38;5053089;28;20037;-84
2021/05/21 02:38:36;;;;;;;17.15;3.35;;;;;;;11.22;100.00;98679.41;5054540;28;20064;-84
2021/05/21 02:41:01;;;;;;;16.85;3.13;;;;;;;11.25;100.00;98679.09;5054187;28;20037;-84
2021/05/21 02:43:27;;;;;;;18.27;3.33;;;;;;;10.96;100.00;98684.56;5054279;28;20111;-84
2021/05/21 02:45:52;;;;;;;18.38;3.15;;;;;;;11.17;100.00;98681.66;5054350;28;20029;-84
2021/05/21 02:48:17;;;;;;;18.05;3.30;;;;;;;11.35;100.00;98679.81;5054621;28;20086;-84
2021/05/21 02:50:43;;;;;;;11.90;3.05;;;;;;;11.32;100.00;98654.69;5053866;28;20025;-84
2021/05/21 02:53:09;;;;;;;25.50;4.47;;;;;;;11.28;100.00;98666.47;5052531;28;20035;-84
2021/05/21 02:55:35;;;;;;;21.55;4.07;;;;;;;11.30;100.00;98676.84;5053957;28;20033;-84
2021/05/21 02:58:02;;;;;;;16.42;3.03;;;;;;;11.22;100.00;98666.28;5054019;28;20029;-84
2021/05/21 03:00:28;;;;;;;23.70;3.45;;;;;;;11.08;100.00;98663.19;5053945;28;20028;-84
2021/05/21 03:02:53;;;;;;;23.40;3.53;;;;;;;11.43;100.00;98661.53;5052496;28;20119;-84
2021/05/21 03:05:22;;;;;;;18.77;4.22;;;;;;;11.35;100.00;98671.94;5054110;28;20021;-84
2021/05/21 03:07:55;;;;;;;14.10;3.10;;;;;;;11.44;100.00;98678.94;5054193;28;20039;-85
2021/05/21 03:10:25;;;;;;;18.63;3.42;;;;;;;11.29;100.00;98664.66;5053667;28;20563;-84
2021/05/21 03:12:51;;;;;;;24.17;3.97;;;;;;;11.27;100.00;98667.44;5053837;28;20025;-84
2021/05/21 03:15:17;;;;;;;14.98;2.65;;;;;;;11.35;100.00;98663.25;5054124;28;20017;-85
2021/05/21 03:17:42;;;;;;;15.48;3.47;;;;;;;11.38;100.00;98661.13;5054106;28;20421;-84
2021/05/21 03:20:08;;;;;;;15.13;2.70;;;;;;;11.47;100.00;98675.16;5053451;28;20037;-85
2021/05/21 03:22:34;;;;;;;11.02;2.42;;;;;;;11.34;100.00;98667.69;5053709;28;20451;-85
2021/05/21 03:25:03;;;;;;;13.10;2.88;;;;;;;11.08;100.00;98655.31;5053977;28;20057;-85
2021/05/21 03:27:30;;;;;;;14.55;2.08;;;;;;;10.97;100.00;98679.16;5053695;28;20035;-85
2021/05/21 03:29:55;;;;;;;12.23;3.42;;;;;;;11.11;100.00;98662.88;5052810;28;20356;-85
2021/05/21 03:32:20;;;;;;;20.02;3.47;;;;;;;11.02;100.00;98636.69;5053354;28;20036;-84
2021/05/21 03:34:46;;;;;;;18.90;3.17;;;;;;;11.34;100.00;98644.03;5053584;28;20076;-85
2021/05/21 03:37:11;;;;;;;19.88;3.25;;;;;;;11.18;100.00;98633.41;5053654;28;20028;-85
2021/05/21 03:39:38;;;;;;;14.65;3.08;;;;;;;11.13;100.00;98633.00;5052927;28;20021;-85
2021/05/21 03:42:04;;;;;;;15.25;3.03;;;;;;;11.22;100.00;98640.00;5052423;28;20036;-84
2021/05/21 03:44:30;;;;;;;16.02;3.50;;;;;;;11.34;100.00;98632.69;5053028;28;20108;-85
2021/05/21 03:46:57;;;;;;;19.55;3.22;;;;;;;11.31;100.00;98612.78;5053291;28;20175;-84
2021/05/21 03:49:23;;;;;;;19.80;3.20;;;;;;;11.38;100.00;98613.84;5052879;28;20554;-85
2021/05/21 03:51:49;;;;;;;21.75;3.10;;;;;;;11.25;100.00;98613.41;5053115;28;20325;-85
2021/05/21 03:54:15;;;;;;;14.45;3.50;;;;;;;11.34;100.00;98630.91;5053063;28;20074;-85
2021/05/21 03:56:40;;;;;;;16.25;3.05;;;;;;;11.32;100.00;98612.66;5053379;28;20382;-85
2021/05/21 03:59:06;;;;;;;17.77;3.50;;;;;;;11.57;100.00;98614.63;5052907;28;20024;-85
2021/05/21 04:01:32;;;;;;;19.25;3.35;;;;;;;11.29;100.00;98606.88;5052704;28;20506;-84
2021/05/21 04:03:57;;;;;;;16.85;4.57;;;;;;;11.20;100.00;98607.81;5052936;28;20036;-85
2021/05/21 04:06:22;;;;;;;22.08;3.50;;;;;;;11.37;100.00;98614.00;5052954;28;20020;-85
2021/05/21 04:08:48;;;;;;;25.35;4.68;;;;;;;11.21;100.00;98598.94;5052573;28;20039;-85
2021/05/21 04:11:13;;;;;;;18.85;3.97;;;;;;;11.20;100.00;98602.56;5052544;28;20025;-85
2021/05/21 04:13:39;;;;;;;21.88;3.50;;;;;;;11.30;100.00;98614.59;5051579;28;20103;-85
2021/05/21 04:16:04;;;;;;;29.08;4.00;;;;;;;11.37;100.00;98592.97;5052591;28;20025;-85
2021/05/21 04:18:29;;;;;;;24.52;3.78;;;;;;;11.33;100.00;98592.44;5053040;28;20044;-85
2021/05/21 04:20:55;;;;;;;21.48;3.30;;;;;;;11.56;100.00;98586.69;5052502;28;20028;-85
2021/05/21 04:23:20;;;;;;;28.63;4.35;;;;;;;11.35;100.00;98589.66;5052602;28;20043;-85
2021/05/21 04:25:45;;;;;;;15.50;3.90;;;;;;;11.32;100.00;98585.56;5052410;28;20021;-85
2021/05/21 04:28:12;;;;;;;19.42;3.33;;;;;;;11.10;100.00;98577.19;5052415;28;20390;-85
2021/05/21 04:30:37;;;;;;;16.50;3.53;;;;;;;11.26;100.00;98576.47;5051879;28;20428;-85
2021/05/21 04:33:02;;;;;;;16.38;5.03;;;;;;;11.11;100.00;98575.38;5051470;28;20040;-85
2021/05/21 04:35:28;;;;;;;17.70;2.75;;;;;;;11.22;100.00;98569.88;5052446;28;20374;-85
2021/05/21 04:37:54;;;;;;;17.27;3.53;;;;;;;11.16;100.00;98569.66;5052207;28;20052;-85
2021/05/21 04:40:19;;;;;;;26.77;5.85;;;;;;;11.03;100.00;98564.81;5051832;28;20397;-85
2021/05/21 04:42:44;;;;;;;19.20;2.97;;;;;;;11.21;100.00;98567.41;5051783;28;20060;-85
2021/05/21 04:45:11;;;;;;;17.10;3.00;;;;;;;11.24;100.00;98561.84;5052386;28;20107;-85
2021/05/21 04:47:36;;;;;;;8.65;3.22;;;;;;;10.94;100.00;98556.06;5052012;28;20069;-85
2021/05/21 04:50:03;;;;;;;19.45;3.10;;;;;;;11.37;100.00;98557.00;5051812;28;20106;-85
2021/05/21 04:52:28;;;;;;;19.42;4.68;;;;;;;10.97;100.00;98554.91;5052495;28;20028;-85
2021/05/21 04:54:54;;;;;;;16.00;3.25;;;;;;;11.19;100.00;98553.59;5052251;28;20489;-85
2021/05/21 04:57:19;;;;;;;17.10;3.28;;;;;;;10.98;100.00;98554.78;5052140;28;20025;-85
2021/05/21 04:59:44;;;;;;;23.42;3.42;;;;;;;11.23;100.00;98560.19;5051509;28;20021;-85
2021/05/21 05:02:10;;;;;;;17.35;3.25;;;;;;;11.13;100.00;98559.47;5052251;28;20029;-85
2021/05/21 05:04:35;;;;;;;24.67;3.70;;;;;;;11.07;100.00;98538.09;5051978;28;20360;-85
2021/05/21 05:07:01;;;;;;;12.35;3.70;;;;;;;11.18;100.00;98546.72;5050680;28;20151;-85
2021/05/21 05:09:26;;;;;;;18.17;3.20;;;;;;;11.19;100.00;98529.97;5047273;28;20044;-84
2021/05/21 05:11:51;;;;;;;21.60;3.78;;;;;;;11.11;100.00;98521.03;5031573;28;20022;-84
2021/05/21 05:14:17;;;;;;;15.77;3.67;;;;;;;11.06;100.00;98523.31;5031890;28;20029;-85
2021/05/21 05:16:42;;;;;;;23.55;3.20;;;;;;;11.28;100.00;98532.47;5031838;28;20491;-84
2021/05/21 05:19:08;;;;;;;17.63;2.88;;;;;;;11.40;100.00;98514.66;5034426;28;20044;-84
2021/05/21 05:21:39;;;;;;;24.80;4.22;;;;;;;11.17;100.00;98518.78;5051631;28;20032;-84
2021/05/21 05:24:04;;;;;;;13.57;2.55;;;;;;;11.21;100.00;98525.38;5050920;28;20082;-84
2021/05/21 05:26:31;;;;;;;17.85;3.15;;;;;;;11.24;100.00;98525.06;5049806;28;20107;-84
2021/05/21 05:28:57;;;;;;;15.52;2.50;;;;;;;11.25;100.00;98521.47;5049958;28;20021;-84
2021/05/21 05:31:23;;;;;;;23.60;3.33;;;;;;;11.18;100.00;98509.94;5050219;28;20056;-84
2021/05/21 05:33:48;;;;;;;19.90;3.30;;;;;;;11.32;100.00;98518.06;5050648;28;20463;-84
2021/05/21 05:36:14;;;;;;;12.95;2.88;;;;;;;11.36;100.00;98513.31;5051299;28;20025;-84
2021/05/21 05:38:39;;;;;;;18.13;2.97;;;;;;;11.28;100.00;98511.47;5051343;28;20028;-84
2021/05/21 05:41:05;;;;;;;16.92;3.40;;;;;;;11.10;100.00;98502.81;5050566;28;20033;-84
2021/05/21 05:43:30;;;;;;;19.48;2.85;;;;;;;11.12;100.00;98514.00;5050979;28;20031;-84
2021/05/21 05:45:56;;;;;;;20.55;2.97;;;;;;;11.20;100.00;98519.31;5053297;28;20033;-84
2021/05/21 05:48:21;;;;;;;16.30;2.80;;;;;;;11.09;100.00;98509.84;5055052;28;20115;-84
2021/05/21 05:50:51;;;;;;;20.20;3.05;;;;;;;11.44;100.00;98516.00;5054731;28;20033;-84
2021/05/21 05:53:17;;;;;;;23.80;4.32;;;;;;;11.53;100.00;98498.44;5055078;28;20036;-84
2021/05/21 05:55:43;;;;;;;21.45;3.33;;;;;;;11.24;100.00;98509.31;5054941;28;20025;-84
2021/05/21 05:58:09;;;;;;;18.05;2.70;;;;;;;11.25;100.00;98490.75;5054085;28;20081;-84
2021/05/21 06:00:35;;;;;;;20.45;3.08;;;;;;;11.28;100.00;98500.97;5047711;28;20037;-83
2021/05/21 06:03:11;;;;;;;17.17;3.97;;;;;;;11.11;100.00;98505.28;5054340;28;20152;-83
2021/05/21 06:05:37;;;;;;;16.85;3.10;;;;;;;11.22;100.00;98512.09;5054678;28;20029;-82
2021/05/21 06:08:07;;;;;;;22.38;2.92;;;;;;;11.52;100.00;98502.88;5054215;28;20029;-83
2021/05/21 06:10:34;;;;;;;18.77;3.20;;;;;;;11.08;100.00;98500.34;5057430;28;20106;-93
2021/05/21 06:13:10;;;;;;;10.85;2.80;;;;;;;11.14;100.00;98498.91;5094287;22;20041;-96
2021/05/21 06:15:37;;;;;;;17.13;2.97;;;;;;;11.36;100.00;98479.16;5093156;22;20044;-96
2021/05/21 06:18:03;;;;;;;20.75;3.10;;;;;;;11.30;100.00;98485.88;5556499;22;20048;-93
2021/05/21 06:35:51;;;;;;;20.90;3.20;;;;;;;11.51;100.00;98501.25;5024750;28;20050;-96
2021/05/21 06:38:17;;;;;;;17.77;3.33;;;;;;;11.41;100.00;98513.66;5041376;28;20028;-93
2021/05/21 06:40:42;;;;;;;18.20;3.60;;;;;;;11.40;100.00;98488.38;5030749;28;20345;-95
2021/05/21 06:43:12;;;;;;;13.30;2.67;;;;;;;11.28;100.00;98514.09;5029622;28;20068;-94
2021/05/21 06:45:39;;;;;;;19.73;3.17;;;;;;;11.05;100.00;98520.84;5042547;28;21365;-93
2021/05/21 06:48:05;;;;;;;23.13;3.65;;;;;;;11.21;100.00;98507.81;5047196;28;20022;-93
2021/05/21 06:50:30;;;;;;;24.27;3.63;;;;;;;11.63;100.00;98512.31;5021211;28;20100;-93
2021/05/21 06:52:56;;;;;;;18.23;3.30;;;;;;;11.33;100.00;98518.88;5027915;28;20056;-93
2021/05/21 06:55:21;;;;;;;21.27;3.25;;;;;;;11.19;100.00;98514.19;5022877;28;20032;-88
2021/05/21 06:57:47;;;;;;;14.68;3.03;;;;;;;11.31;100.00;98510.31;5037478;28;20030;-87
2021/05/21 07:00:13;;;;;;;19.00;3.30;;;;;;;11.49;100.00;98516.34;5020987;28;20033;-89
2021/05/21 07:02:38;;;;;;;14.63;2.80;;;;;;;11.61;100.00;98506.41;5035896;28;20036;-89
2021/05/21 07:05:04;;;;;;;20.55;3.42;;;;;;;11.39;100.00;98513.00;5026356;28;20395;-89
2021/05/21 07:07:31;;;;;;;21.02;3.17;;;;;;;11.67;100.00;98510.19;5027305;28;20034;-89
2021/05/21 07:12:18;;;;;;;15.63;3.75;;;;;;;11.29;100.00;98501.78;5077704;28;20387;-93
2021/05/21 07:14:44;;;;;;;17.27;5.30;;;;;;;11.31;100.00;98505.06;5066777;28;20029;-88
2021/05/21 07:17:09;;;;;;;26.63;4.13;;;;;;;11.54;100.00;98488.78;5074588;28;20044;-90
2021/05/21 07:19:35;;;;;;;15.75;2.88;;;;;;;11.24;100.00;98501.44;5067229;28;20474;-89
2021/05/21 07:22:02;;;;;;;10.73;2.42;;;;;;;11.42;100.00;98507.44;5049424;28;20558;-91
2021/05/21 07:24:27;;;;;;;11.40;2.08;;;;;;;11.50;100.00;98491.72;5049834;28;20033;-92
2021/05/21 07:26:53;;;;;;;16.08;2.92;;;;;;;11.81;100.00;98506.13;5049540;28;20099;-96
2021/05/21 07:29:18;;;;;;;12.75;2.53;;;;;;;11.94;100.00;98508.34;5048500;28;20036;-96
2021/05/21 07:31:43;;;;;;;18.73;3.97;;;;;;;11.63;100.00;98488.66;5049630;28;20485;-94
2021/05/21 07:34:09;;;;;;;16.42;2.60;;;;;;;11.81;100.00;98493.81;5048624;28;20647;-95
2021/05/21 07:36:35;;;;;;;8.43;2.28;;;;;;;11.83;100.00;98486.59;5047666;28;20041;-95
2021/05/21 07:39:02;;;;;;;19.40;3.15;;;;;;;11.73;100.00;98477.19;5047147;28;20032;-95
2021/05/21 07:41:28;;;;;;;14.02;2.70;;;;;;;11.88;100.00;98473.78;5048868;28;20036;-94
2021/05/21 07:43:54;;;;;;;15.15;2.95;;;;;;;11.52;100.00;98468.72;5053596;28;20029;-96
2021/05/21 07:46:22;;;;;;;13.48;3.80;;;;;;;12.12;100.00;98472.22;5056428;28;20029;-96
2021/05/21 07:48:49;;;;;;;18.65;2.63;;;;;;;11.94;100.00;98466.28;5059948;28;20025;-96
2021/05/21 07:51:14;;;;;;;13.50;2.28;;;;;;;11.96;100.00;98456.41;5054365;28;20029;-96
2021/05/21 07:53:52;;;;;;;17.95;2.95;;;;;;;12.22;100.00;98475.56;5055676;28;20489;-96
2021/05/21 07:56:17;;;;;;;19.58;3.42;;;;;;;12.09;100.00;98460.22;5050212;28;20055;-96
2021/05/21 07:58:42;;;;;;;19.73;4.00;;;;;;;11.97;100.00;98463.34;5051211;28;20037;-96
2021/05/21 08:01:08;;;;;;;21.33;3.42;;;;;;;11.63;100.00;98464.16;5044901;28;20025;-95
2021/05/21 08:03:34;;;;;;;19.85;2.67;;;;;;;11.86;100.00;98470.47;5055083;28;20029;-96
2021/05/21 08:06:01;;;;;;;11.43;2.20;;;;;;;11.79;100.00;98456.34;5050820;28;20036;-96
2021/05/21 08:08:31;;;;;;;15.30;2.65;;;;;;;12.01;100.00;98468.09;5053704;28;20029;-96
2021/05/21 08:11:00;;;;;;;18.42;2.20;;;;;;;11.99;100.00;98458.72;5036233;28;20026;-96
2021/05/21 08:13:26;;;;;;;10.40;2.65;;;;;;;11.93;100.00;98459.34;5041138;28;20030;-94
2021/05/21 08:15:51;;;;;;;14.48;1.90;;;;;;;11.93;100.00;98465.47;5046653;28;20074;-95
2021/05/21 08:18:19;;;;;;;17.33;2.45;;;;;;;12.20;100.00;98474.03;5050732;28;20032;-96
2021/05/21 08:21:07;;;;;;;17.77;2.92;;;;;;;11.92;100.00;98449.81;5065363;28;20055;-96
2021/05/21 08:23:37;;;;;;;11.88;1.85;;;;;;;11.62;100.00;98470.41;5249696;23;21840;-96
2021/05/21 08:26:05;;;;;;;12.57;2.20;;;;;;;11.98;100.00;98447.38;5050037;28;20052;-96
2021/05/21 08:51:39;;;;;;;10.10;1.88;;;;;;;11.99;100.00;98450.84;5834858;22;20049;-96
2021/05/21 08:56:43;;;;;;;12.38;2.22;;;;;;;11.99;100.00;98471.88;5283072;22;20036;-96
2021/05/21 08:59:09;;;;;;;10.45;1.75;;;;;;;12.18;100.00;98471.56;5028039;28;20014;-96
2021/05/21 09:01:51;;;;;;;10.82;2.03;;;;;;;12.41;100.00;98481.47;5051304;28;20051;-96
2021/05/21 09:06:46;;;;;;;8.35;1.60;;;;;;;12.18;100.00;98455.78;5366442;22;19975;-96
2021/05/21 09:09:11;;;;;;;8.55;1.60;;;;;;;12.34;100.00;98462.06;5250073;22;20093;-96
2021/05/21 09:11:40;;;;;;;13.18;3.00;;;;;;;12.43;100.00;98479.50;5070356;28;20035;-96
2021/05/21 10:05:58;;;;;;;5.60;1.00;;;;;;;12.12;100.00;98508.22;5553735;22;20039;-96
2021/05/21 10:13:46;;;;;;;4.85;1.02;;;;;;;11.80;100.00;98473.75;5707376;22;20043;-96
2021/05/21 10:21:25;;;;;;;3.13;0.60;;;;;;;11.95;100.00;98486.31;5934869;22;20019;-96
2021/05/21 10:23:58;;;;;;;8.45;1.15;;;;;;;12.26;100.00;98516.34;5341685;22;20102;-96
2021/05/21 10:36:50;;;;;;;2.20;0.40;;;;;;;12.14;100.00;98506.28;5910059;22;20049;-96
2021/05/21 10:39:18;;;;;;;9.80;1.48;;;;;;;11.66;100.00;98485.69;5501473;22;20079;-96
2021/05/21 10:59:58;;;;;;;8.57;1.40;;;;;;;12.34;100.00;98533.13;6192470;22;20121;-96
2021/05/21 12:09:23;;;;;;;7.85;1.10;;;;;;;13.68;100.00;98543.28;5387078;22;20049;-96
2021/05/21 12:11:50;;;;;;;11.35;1.30;;;;;;;12.80;100.00;98538.78;5034247;28;20092;-91
2021/05/21 12:14:23;;;;;;;11.82;1.92;;;;;;;13.00;100.00;98541.91;5037002;28;20025;-89
2021/05/21 12:16:52;;;;;;;5.75;0.85;;;;;;;13.24;100.00;98533.97;5034856;28;20022;-96
2021/05/21 12:19:19;;;;;;;5.47;1.02;;;;;;;12.84;100.00;98555.91;5019652;28;20026;-96
2021/05/21 12:23:02;;;;;;;8.15;1.60;;;;;;;12.49;100.00;98531.50;5074110;22;20424;-95
2021/05/21 12:25:32;;;;;;;6.35;0.90;;;;;;;12.55;100.00;98541.38;5061150;28;20033;-96
2021/05/21 12:27:58;;;;;;;6.18;1.10;;;;;;;12.85;100.00;98541.72;5064348;28;20040;-96
2021/05/21 12:30:25;;;;;;;6.15;1.10;;;;;;;13.27;100.00;98544.19;5062978;28;20021;-96
2021/05/21 12:32:51;;;;;;;9.93;1.73;;;;;;;13.34;100.00;98552.25;5059893;28;20029;-95
2021/05/21 12:35:19;;;;;;;8.73;1.75;;;;;;;12.79;100.00;98523.94;5062097;28;20085;-96
2021/05/21 12:37:45;;;;;;;6.18;1.10;;;;;;;13.04;100.00;98527.41;5062133;28;20036;-96
2021/05/21 12:40:12;;;;;;;6.45;1.02;;;;;;;13.28;100.00;98558.19;5066272;28;20049;-96
2021/05/21 12:47:50;;;;;;;13.77;3.00;;;;;;;13.15;100.00;98542.03;5086899;23;20041;-96
2021/05/21 12:50:18;;;;;;;10.77;1.50;;;;;;;13.13;100.00;98528.22;5162149;23;20854;-95
2021/05/21 12:55:14;;;;;;;9.82;1.80;;;;;;;13.08;100.00;98550.63;5056756;28;20064;-96
2021/05/21 12:57:43;;;;;;;9.35;1.35;;;;;;;12.96;100.00;98553.75;5033685;28;20033;-96
2021/05/21 13:00:09;;;;;;;11.13;1.52;;;;;;;13.16;100.00;98552.44;5049263;28;20033;-88
2021/05/21 13:02:35;;;;;;;13.60;2.15;;;;;;;13.39;100.00;98560.50;5048118;28;20592;-89
2021/05/21 13:05:09;;;;;;;8.55;1.48;;;;;;;13.34;100.00;98557.53;5048103;28;20430;-89
2021/05/21 13:07:35;;;;;;;7.43;1.65;;;;;;;13.18;100.00;98552.25;5049450;28;20044;-89
2021/05/21 13:10:05;;;;;;;12.88;1.67;;;;;;;13.43;100.00;98553.09;5049387;28;20478;-89
2021/05/21 13:12:33;;;;;;;10.10;2.22;;;;;;;13.52;100.00;98556.53;5048423;28;20083;-90
2021/05/21 13:15:00;;;;;;;7.63;1.35;;;;;;;13.37;100.00;98557.22;5048874;28;20435;-88
2021/05/21 13:17:36;;;;;;;24.05;3.47;;;;;;;13.47;100.00;98559.66;5048779;28;20491;-89
2021/05/21 13:20:02;;;;;;;11.13;1.95;;;;;;;13.41;99.43;98547.97;5057408;28;20364;-88
2021/05/21 13:22:29;;;;;;;7.90;1.55;;;;;;;13.06;100.00;98576.31;5048641;28;20063;-88
2021/05/21 13:24:57;;;;;;;8.60;1.85;;;;;;;12.93;100.00;98557.53;5046325;28;20571;-89
2021/05/21 13:27:25;;;;;;;5.65;1.38;;;;;;;12.71;100.00;98566.91;5045686;28;20025;-90
2021/05/21 13:29:51;;;;;;;9.43;1.45;;;;;;;13.15;100.00;98569.25;5035571;28;20120;-89
2021/05/21 13:32:17;;;;;;;13.38;1.90;;;;;;;13.01;100.00;98560.19;5042460;28;20022;-89
2021/05/21 13:34:42;;;;;;;13.38;1.70;;;;;;;13.24;100.00;98570.84;5036612;28;20112;-89
2021/05/21 13:37:08;;;;;;;11.20;1.75;;;;;;;13.15;100.00;98569.25;5033971;28;20022;-89
2021/05/21 13:39:34;;;;;;;10.57;1.70;;;;;;;12.70;100.00;98576.63;5031478;28;20485;-90
2021/05/21 13:41:59;;;;;;;7.78;1.60;;;;;;;12.95;100.00;98587.16;5031260;28;20047;-89
2021/05/21 13:44:25;;;;;;;12.68;2.03;;;;;;;12.82;100.00;98573.69;5033897;28;20104;-89
2021/05/21 13:46:50;;;;;;;14.00;2.65;;;;;;;12.97;100.00;98566.75;5035008;28;20036;-90
2021/05/21 13:49:23;;;;;;;13.10;2.17;;;;;;;12.76;100.00;98574.34;5033832;28;20029;-89
2021/05/21 13:51:50;;;;;;;13.75;2.42;;;;;;;13.16;100.00;98562.16;5023168;28;20076;-85
2021/05/21 13:54:15;;;;;;;10.43;1.25;;;;;;;12.73;100.00;98598.34;5034626;28;20025;-86
2021/05/21 13:56:40;;;;;;;11.93;1.63;;;;;;;12.71;100.00;98598.50;5034268;28;20029;-86
2021/05/21 13:59:06;;;;;;;11.68;2.47;;;;;;;12.73;100.00;98585.19;5033274;28;20037;-86
2021/05/21 14:01:33;;;;;;;8.65;1.70;;;;;;;12.61;100.00;98582.03;5034778;28;20022;-86
2021/05/21 14:03:58;;;;;;;11.68;2.67;;;;;;;12.76;100.00;98584.88;5025132;28;20317;-86
2021/05/21 14:06:23;;;;;;;15.75;2.10;;;;;;;12.78;100.00;98593.44;5033419;28;20034;-86
2021/05/21 14:08:49;;;;;;;12.68;2.13;;;;;;;12.43;100.00;98580.34;5034667;28;20030;-86
2021/05/21 14:11:14;;;;;;;12.50;2.00;;;;;;;12.54;100.00;98583.66;5034680;28;20128;-86
2021/05/21 14:13:40;;;;;;;9.93;2.00;;;;;;;12.40;100.00;98600.91;5032206;28;20352;-87
2021/05/21 14:16:05;;;;;;;14.88;2.88;;;;;;;12.18;100.00;98597.03;5018931;28;20133;-86
2021/05/21 14:18:30;;;;;;;12.55;1.83;;;;;;;12.71;100.00;98585.34;5015161;28;20030;-86
2021/05/21 14:20:56;;;;;;;14.05;2.65;;;;;;;12.67;100.00;98579.56;5014709;28;20494;-86
2021/05/21 14:23:22;;;;;;;15.30;2.97;;;;;;;12.26;100.00;98573.38;5030466;28;20025;-86
2021/05/21 14:25:48;;;;;;;9.90;2.10;;;;;;;12.77;100.00;98581.22;5032996;28;20025;-85
2021/05/21 14:28:13;;;;;;;13.93;3.58;;;;;;;13.00;100.00;98587.50;5033027;28;20375;-86
2021/05/21 14:30:39;;;;;;;12.82;1.75;;;;;;;13.09;100.00;98590.94;5032635;28;20017;-87
2021/05/21 14:33:07;;;;;;;11.68;1.88;;;;;;;12.76;100.00;98595.41;5031607;28;20541;-89
2021/05/21 14:35:32;;;;;;;9.30;1.52;;;;;;;12.98;100.00;98594.75;5024896;28;20033;-86
2021/05/21 14:37:58;;;;;;;10.75;2.33;;;;;;;13.03;100.00;98600.38;5013848;28;20111;-91
2021/05/21 14:40:23;;;;;;;11.73;2.25;;;;;;;13.05;100.00;98584.38;5017817;28;20048;-87
2021/05/21 14:42:49;;;;;;;15.48;2.33;;;;;;;12.86;100.00;98606.59;5031510;28;20428;-87
2021/05/21 14:45:15;;;;;;;12.68;2.53;;;;;;;12.56;100.00;98593.06;5028410;28;20026;-86
2021/05/21 14:47:41;;;;;;;15.23;2.03;;;;;;;12.80;100.00;98597.53;5013274;28;20029;-86